Time;durP1;ratioP1;P1;durP2;ratioP2;P2;SDS_P1;SDS_P2;PMS_P1;PMS_P2;Temp;Humidity;BMP_temperature;BMP_pressure;BME280_temperature;BME280_humidity;BME280_pressure;Samples;Min_cycle;Max_cycle;Signal;HPM_P1;HPM_P2
2022/09/04 00:01:19;;;;;;;0.10;0.10;;;23.40;96.50;;;23.60;47.13;101016.06;4913345;28;98481;-47
2022/09/04 00:04:34;;;;;;;0.00;0.00;;;23.40;96.50;;;23.59;47.33;101014.34;4909417;28;101443;-48
2022/09/04 00:07:18;;;;;;;0.20;0.20;;;23.40;96.70;;;23.58;48.76;101018.00;4909201;28;102148;-53
2022/09/04 00:10:14;;;;;;;0.40;0.40;;;23.40;98.50;;;23.53;47.50;101018.38;4919666;28;97605;-49
2022/09/04 00:12:51;;;;;;;0.00;0.00;;;23.20;97.30;;;23.49;47.72;101019.63;4905177;28;97378;-51
2022/09/04 00:15:35;;;;;;;0.00;0.00;;;23.20;97.70;;;23.49;47.68;101026.84;4914003;28;97220;-50
2022/09/04 00:18:27;;;;;;;0.00;0.00;;;23.20;97.30;;;23.49;47.64;101034.91;4924438;28;96840;-47
2022/09/04 00:21:24;;;;;;;0.13;0.13;;;23.20;96.90;;;23.51;47.67;101032.94;4925686;28;97105;-46
2022/09/04 00:24:04;;;;;;;0.00;0.00;;;23.20;97.50;;;23.50;47.62;101036.63;4918444;28;97188;-49
2022/09/04 00:27:02;;;;;;;0.00;0.00;;;23.20;97.30;;;23.51;47.61;101041.03;4916652;28;101932;-48
2022/09/04 00:29:52;;;;;;;0.00;0.00;;;23.20;97.10;;;23.52;47.53;101034.66;4909295;28;101949;-49
2022/09/04 00:32:48;;;;;;;0.00;0.00;;;23.20;96.90;;;23.54;47.60;101038.06;4920988;28;96902;-48
2022/09/04 00:35:36;;;;;;;0.07;0.00;;;23.30;96.80;;;23.56;47.36;101041.47;4933090;28;97176;-53
2022/09/04 00:38:33;;;;;;;0.00;0.00;;;23.30;96.70;;;23.57;47.81;101045.88;4916942;28;97410;-52
2022/09/04 00:41:23;;;;;;;0.00;0.00;;;23.30;97.80;;;23.54;47.56;101054.22;4906869;28;96769;-48
2022/09/04 00:44:03;;;;;;;0.23;0.23;;;23.30;97.10;;;23.55;47.56;101053.25;4919828;28;97376;-48
2022/09/04 00:47:26;;;;;;;0.07;0.07;;;23.30;96.90;;;23.53;47.90;101052.50;4916296;28;97388;-49
2022/09/04 00:50:26;;;;;;;0.00;0.00;;;23.30;98.20;;;23.49;47.89;101045.69;4905125;28;100415;-48
2022/09/04 00:53:25;;;;;;;0.37;0.00;;;23.20;97.30;;;23.48;47.93;101050.22;4914950;28;100296;-50
2022/09/04 00:56:21;;;;;;;0.00;0.00;;;23.20;97.30;;;23.48;47.97;101054.75;4919717;28;97458;-47
2022/09/04 00:58:55;;;;;;;0.00;0.00;;;23.20;97.30;;;23.45;47.85;101051.34;4913500;28;96934;-48
2022/09/04 01:01:26;;;;;;;0.00;0.00;;;23.20;97.50;;;23.45;47.87;101054.03;4911703;28;102951;-49
2022/09/04 01:04:32;;;;;;;0.10;0.10;;;23.20;97.20;;;23.49;47.75;101059.16;4922767;28;98510;-52
2022/09/04 01:07:00;;;;;;;0.00;0.00;;;23.20;97.10;;;23.45;47.77;101062.09;4911083;28;96930;-49
2022/09/04 01:09:51;;;;;;;0.00;0.00;;;23.20;97.10;;;23.44;47.93;101055.00;4928445;28;97478;-49
2022/09/04 01:12:41;;;;;;;0.07;0.07;;;23.20;97.80;;;23.44;48.02;101064.94;4919909;28;97024;-52
2022/09/04 01:15:49;;;;;;;0.10;0.00;;;23.10;97.50;;;23.39;48.43;101051.84;4898291;28;97034;-46
2022/09/04 01:18:32;;;;;;;0.00;0.00;;;23.10;99.20;;;23.34;48.12;101064.81;4884747;28;97302;-50
2022/09/04 01:21:54;;;;;;;0.27;0.20;;;23.00;98.00;;;23.36;48.07;101068.25;4923173;28;97410;-50
2022/09/04 01:24:32;;;;;;;0.00;0.00;;;23.00;97.50;;;23.35;49.29;101066.53;4899817;28;101685;-48
2022/09/04 01:27:12;;;;;;;0.47;0.30;;;23.10;99.10;;;23.33;48.39;101071.19;4930045;28;98238;-49
2022/09/04 01:29:56;;;;;;;0.00;0.00;;;23.00;98.60;;;23.29;49.62;101076.94;4918678;28;98058;-49
2022/09/04 01:32:56;;;;;;;0.00;0.00;;;22.90;99.90;;;23.17;49.65;101072.59;4925733;28;97048;-48
2022/09/04 01:35:55;;;;;;;0.10;0.10;;;22.70;99.90;;;23.08;49.33;101076.88;4915000;28;100548;-49
2022/09/04 01:38:30;;;;;;;0.00;0.00;;;22.50;99.90;;;23.03;49.81;101081.78;4916170;28;100324;-50
2022/09/04 01:41:21;;;;;;;0.00;0.00;;;22.50;99.90;;;22.98;49.53;101079.44;4920652;28;96667;-49
2022/09/04 01:43:47;;;;;;;0.50;0.30;;;22.40;99.90;;;22.93;49.75;101080.81;4922888;28;97379;-48
2022/09/04 01:46:37;;;;;;;0.10;0.10;;;22.40;99.90;;;22.94;49.21;101085.19;4919259;28;98266;-49
2022/09/04 01:49:33;;;;;;;0.13;0.10;;;22.40;99.90;;;22.97;49.08;101076.88;4914596;28;97628;-50
2022/09/04 01:52:35;;;;;;;0.00;0.00;;;22.50;99.40;;;22.99;49.00;101085.69;4917618;28;97172;-52
2022/09/04 01:55:18;;;;;;;0.00;0.00;;;22.50;99.40;;;23.03;48.99;101087.16;4926961;28;97129;-52
2022/09/04 01:57:50;;;;;;;0.00;0.00;;;22.60;98.70;;;23.04;49.29;101088.88;4919600;28;97255;-52
2022/09/04 02:00:21;;;;;;;0.00;0.00;;;22.60;99.90;;;23.02;49.45;101090.84;4906415;28;96915;-51
2022/09/04 02:03:11;;;;;;;0.00;0.00;;;22.60;99.90;;;23.03;49.17;101093.41;4897926;28;99523;-52
2022/09/04 02:06:14;;;;;;;0.30;0.20;;;22.60;99.40;;;23.08;49.10;101095.69;4897506;28;97587;-52
2022/09/04 02:09:10;;;;;;;0.77;0.50;;;22.70;99.10;;;23.09;48.99;101102.78;4871234;28;103993;-51
2022/09/04 02:11:41;;;;;;;0.00;0.00;;;22.70;99.40;;;23.09;49.01;101100.97;4890004;28;101210;-52
2022/09/04 02:14:46;;;;;;;0.20;0.10;;;22.70;98.90;;;23.13;49.30;101104.25;4890576;28;104144;-51
2022/09/04 02:17:23;;;;;;;0.07;0.07;;;22.70;99.50;;;23.12;49.02;101113.28;4888194;28;97737;-54
2022/09/04 02:19:58;;;;;;;0.03;0.03;;;22.70;99.20;;;23.12;48.81;101114.16;4891939;28;100049;-53
2022/09/04 02:22:40;;;;;;;0.00;0.00;;;22.70;98.80;;;23.10;49.17;101115.25;4887323;28;102579;-54
2022/09/04 02:25:15;;;;;;;0.10;0.10;;;22.70;99.70;;;23.08;49.58;101114.53;4888364;28;102601;-55
2022/09/04 02:28:15;;;;;;;0.00;0.00;;;22.60;99.90;;;23.06;49.23;101119.19;4896964;28;101689;-55
2022/09/04 02:31:20;;;;;;;0.00;0.00;;;22.60;99.90;;;23.11;48.80;101111.59;4890759;28;101883;-51
2022/09/04 02:34:15;;;;;;;0.07;0.07;;;22.70;98.90;;;23.14;48.75;101117.56;4886760;28;100586;-52
2022/09/04 02:37:06;;;;;;;0.13;0.00;;;22.80;98.40;;;23.20;48.51;101116.25;4892057;28;101575;-50
2022/09/04 02:40:10;;;;;;;0.37;0.20;;;22.90;98.20;;;23.25;48.48;101119.41;4888437;28;98105;-53
2022/09/04 02:43:19;;;;;;;0.00;0.00;;;23.00;98.10;;;23.28;48.38;101124.53;4882977;28;104235;-52
2022/09/04 02:46:25;;;;;;;0.63;0.27;;;23.00;98.30;;;23.28;48.35;101118.28;4871763;28;101379;-53
2022/09/04 02:49:12;;;;;;;0.30;0.20;;;23.00;98.00;;;23.27;48.89;101128.19;4890459;28;98420;-53
2022/09/04 02:52:32;;;;;;;0.00;0.00;;;23.00;99.20;;;23.20;49.42;101129.69;4891483;28;99493;-49
2022/09/04 02:55:32;;;;;;;0.00;0.00;;;22.90;99.90;;;23.08;49.38;101128.84;4917233;28;102136;-49
2022/09/04 02:58:42;;;;;;;0.20;0.03;;;22.60;99.90;;;22.99;49.66;101126.03;4917781;28;97085;-52
2022/09/04 03:01:23;;;;;;;0.00;0.00;;;22.50;99.90;;;22.96;49.35;101123.59;4906540;28;97466;-47
2022/09/04 03:04:03;;;;;;;0.00;0.00;;;22.40;99.90;;;22.96;49.36;101128.97;4928230;28;97262;-51
2022/09/04 03:07:02;;;;;;;0.10;0.10;;;22.50;99.60;;;22.98;49.31;101127.00;4917254;28;103375;-49
2022/09/04 03:09:46;;;;;;;0.00;0.00;;;22.50;99.60;;;22.99;49.43;101132.25;4926505;28;99985;-47
2022/09/04 03:12:48;;;;;;;0.10;0.00;;;22.60;99.70;;;23.03;49.00;101131.06;4917663;28;97172;-51
2022/09/04 03:15:26;;;;;;;0.00;0.00;;;22.60;98.80;;;23.06;49.01;101128.13;4912694;28;97184;-48
2022/09/04 03:18:03;;;;;;;0.00;0.00;;;22.70;98.70;;;23.10;48.84;101131.41;4917296;28;97007;-51
2022/09/04 03:20:38;;;;;;;0.00;0.00;;;22.80;98.60;;;23.16;48.67;101130.94;4927744;28;102266;-49
2022/09/04 03:23:34;;;;;;;0.00;0.00;;;22.90;98.40;;;23.22;48.51;101133.09;4915391;28;98672;-48
2022/09/04 03:26:30;;;;;;;0.00;0.00;;;23.00;98.10;;;23.28;48.27;101126.34;4914554;28;97104;-52
2022/09/04 03:29:15;;;;;;;0.00;0.00;;;23.00;97.90;;;23.32;48.42;101125.16;4915702;28;97601;-50
2022/09/04 03:32:08;;;;;;;0.10;0.10;;;23.10;98.00;;;23.33;48.32;101127.72;4921939;28;101450;-49
2022/09/04 03:34:47;;;;;;;0.00;0.00;;;23.10;97.90;;;23.37;48.26;101136.38;4917657;28;96981;-48
2022/09/04 03:37:52;;;;;;;0.00;0.00;;;23.10;97.80;;;23.39;48.40;101129.88;4923751;28;96905;-50
2022/09/04 03:40:34;;;;;;;0.00;0.00;;;23.20;97.90;;;23.37;48.21;101137.25;4907601;28;97484;-51
2022/09/04 03:43:18;;;;;;;0.60;0.40;;;23.10;97.90;;;23.39;48.31;101148.72;4909611;28;97414;-53
2022/09/04 03:46:17;;;;;;;0.00;0.00;;;23.10;97.90;;;23.38;48.69;101149.72;4925057;28;99356;-47
2022/09/04 03:49:13;;;;;;;0.03;0.03;;;23.10;98.50;;;23.33;48.72;101148.38;4910273;28;96880;-54
2022/09/04 03:52:00;;;;;;;0.00;0.00;;;23.00;98.40;;;23.32;48.43;101144.84;4909561;28;100968;-52
2022/09/04 03:54:37;;;;;;;0.00;0.00;;;23.00;98.20;;;23.29;48.59;101153.19;4924886;28;102770;-50
2022/09/04 03:57:37;;;;;;;0.10;0.03;;;23.00;98.30;;;23.29;48.80;101154.97;4917935;28;97258;-49
2022/09/04 04:00:09;;;;;;;0.00;0.00;;;23.00;98.80;;;23.21;49.22;101147.53;4925346;28;96919;-50
2022/09/04 04:03:06;;;;;;;0.23;0.10;;;22.90;99.60;;;23.17;48.96;101153.31;4922044;28;98066;-52
2022/09/04 04:05:55;;;;;;;0.00;0.00;;;22.70;99.20;;;23.17;48.82;101159.53;4916648;28;101218;-50
2022/09/04 04:09:13;;;;;;;0.00;0.00;;;22.80;98.70;;;23.20;48.87;101159.28;4915752;28;96974;-47
2022/09/04 04:12:05;;;;;;;2.33;0.30;;;22.90;98.40;;;23.21;48.92;101157.47;4900960;28;96955;-46
2022/09/04 04:14:40;;;;;;;0.10;0.10;;;22.90;98.70;;;23.13;49.40;101158.06;4893775;28;101878;-46
2022/09/04 04:17:46;;;;;;;0.40;0.20;;;22.70;99.80;;;23.02;49.65;101163.47;4915085;28;99787;-48
2022/09/04 04:20:43;;;;;;;0.10;0.10;;;22.50;99.90;;;22.97;49.42;101162.97;4925403;28;97340;-49
2022/09/04 04:23:23;;;;;;;0.00;0.00;;;22.40;99.90;;;22.95;49.33;101163.09;4905575;28;97128;-49
2022/09/04 04:26:07;;;;;;;0.00;0.00;;;22.50;99.70;;;22.99;49.38;101161.00;4927832;28;97048;-49
2022/09/04 04:28:58;;;;;;;0.10;0.10;;;22.50;99.10;;;23.06;49.13;101173.00;4918319;28;102246;-50
2022/09/04 04:32:09;;;;;;;0.10;0.10;;;22.70;98.80;;;23.13;48.78;101176.91;4933315;28;96645;-48
2022/09/04 04:35:00;;;;;;;0.00;0.00;;;22.80;98.50;;;23.18;48.81;101172.03;4920545;28;97257;-51
2022/09/04 04:37:56;;;;;;;0.10;0.10;;;22.90;98.30;;;23.16;48.82;101184.75;4906909;28;101921;-53
2022/09/04 04:40:45;;;;;;;0.10;0.00;;;22.90;98.70;;;23.17;48.90;101185.59;4924503;28;102270;-52
2022/09/04 04:43:40;;;;;;;0.00;0.00;;;22.90;98.40;;;23.18;48.77;101188.16;4924398;28;96901;-49
2022/09/04 04:46:18;;;;;;;0.00;0.00;;;22.80;98.40;;;23.21;48.67;101187.91;4927932;28;96941;-48
2022/09/04 04:49:03;;;;;;;0.00;0.00;;;22.90;98.20;;;23.25;48.43;101183.97;4913597;28;97423;-49
2022/09/04 04:52:08;;;;;;;0.00;0.00;;;23.00;98.10;;;23.29;48.35;101180.09;4923500;28;99901;-55
2022/09/04 04:55:06;;;;;;;0.00;0.00;;;23.10;98.00;;;23.31;48.46;101191.59;4906835;28;97234;-48
2022/09/04 04:57:59;;;;;;;0.00;0.00;;;23.10;97.80;;;23.33;48.43;101191.47;4921233;28;104121;-50
2022/09/04 05:00:39;;;;;;;0.00;0.00;;;23.20;97.80;;;23.36;48.34;101202.81;4911365;28;101726;-48
2022/09/04 05:03:15;;;;;;;0.00;0.00;;;23.20;97.70;;;23.35;48.49;101211.03;4921282;28;97154;-51
2022/09/04 05:06:06;;;;;;;0.10;0.10;;;23.20;97.70;;;23.41;48.31;101213.22;4920545;28;99078;-46
2022/09/04 05:09:10;;;;;;;0.00;0.00;;;23.20;97.70;;;23.42;48.08;101214.91;4913817;28;98607;-48
2022/09/04 05:11:57;;;;;;;0.00;0.00;;;23.20;97.60;;;23.43;48.25;101214.81;4928368;28;103079;-49
2022/09/04 05:14:57;;;;;;;0.00;0.00;;;23.30;97.60;;;23.47;48.24;101219.94;4923853;28;99982;-48
2022/09/04 05:17:48;;;;;;;0.97;0.20;;;23.30;97.60;;;23.46;48.20;101229.88;4920196;28;97214;-52
2022/09/04 05:20:35;;;;;;;0.00;0.00;;;23.30;97.60;;;23.47;48.33;101230.72;4920990;28;97625;-48
2022/09/04 05:23:21;;;;;;;0.07;0.07;;;23.30;97.60;;;23.48;48.28;101233.28;4927269;28;97344;-47
2022/09/04 05:25:59;;;;;;;0.00;0.00;;;23.30;97.60;;;23.47;48.17;101242.34;4917390;28;97208;-46
2022/09/04 05:29:04;;;;;;;0.00;0.00;;;23.30;97.50;;;23.49;48.16;101251.16;4915629;28;97203;-49
2022/09/04 05:32:15;;;;;;;0.00;0.00;;;23.30;97.50;;;23.51;48.19;101242.94;4923399;28;97363;-48
2022/09/04 05:34:52;;;;;;;0.00;0.00;;;23.30;97.50;;;23.51;48.15;101253.72;4910953;28;102914;-49
2022/09/04 05:37:26;;;;;;;0.00;0.00;;;23.30;97.50;;;23.50;48.21;101257.38;4926996;28;96607;-49
2022/09/04 05:40:03;;;;;;;0.10;0.10;;;23.30;97.50;;;23.51;47.86;101264.50;4922737;28;97146;-48
2022/09/04 05:42:57;;;;;;;0.70;0.40;;;23.30;97.40;;;23.51;48.08;101264.50;4916779;28;97336;-49
2022/09/04 05:46:03;;;;;;;0.00;0.00;;;23.40;97.50;;;23.51;47.97;101275.25;4926186;28;101730;-49
2022/09/04 05:49:06;;;;;;;0.00;0.00;;;23.40;97.40;;;23.49;47.98;101267.31;4913457;28;101012;-49
2022/09/04 05:51:52;;;;;;;0.00;0.00;;;23.40;97.50;;;23.47;48.29;101273.78;4928411;28;98059;-47
2022/09/04 05:54:57;;;;;;;0.00;0.00;;;23.30;97.40;;;23.48;48.12;101281.75;4915549;28;97024;-49
2022/09/04 05:57:50;;;;;;;0.00;0.00;;;23.40;97.40;;;23.47;48.24;101276.50;4910497;28;100391;-48
2022/09/04 06:00:19;;;;;;;0.00;0.00;;;23.40;97.40;;;23.44;48.11;101275.75;4911305;28;97124;-48
2022/09/04 06:03:09;;;;;;;0.00;0.00;;;23.30;97.40;;;23.48;48.17;101281.75;4909306;28;97528;-50
2022/09/04 06:06:10;;;;;;;0.00;0.00;;;23.40;97.40;;;23.48;48.13;101287.13;4912264;28;97012;-49
2022/09/04 06:08:51;;;;;;;0.00;0.00;;;23.40;97.40;;;23.49;48.21;101288.00;4912201;28;102220;-48
2022/09/04 06:11:40;;;;;;;0.00;0.00;;;23.40;97.40;;;23.49;48.23;101293.38;4915796;28;97245;-52
2022/09/04 06:14:39;;;;;;;0.00;0.00;;;23.30;97.40;;;23.48;48.17;101297.03;4910163;28;96933;-49
2022/09/04 06:17:41;;;;;;;0.30;0.00;;;23.30;97.40;;;23.47;48.26;101296.19;4903763;28;97149;-51
2022/09/04 06:20:56;;;;;;;0.20;0.17;;;23.30;97.40;;;23.49;48.03;101304.16;4910347;28;96904;-53
2022/09/04 06:24:25;;;;;;;0.00;0.00;;;23.40;97.40;;;23.48;48.20;101297.91;4905787;28;101840;-48
2022/09/04 06:27:34;;;;;;;0.40;0.20;;;23.40;97.40;;;23.45;48.24;101301.69;4909235;28;96807;-50
2022/09/04 06:30:02;;;;;;;0.00;0.00;;;23.30;97.40;;;23.45;48.15;101311.63;4909838;28;97560;-51
2022/09/04 06:33:05;;;;;;;0.00;0.00;;;23.30;97.40;;;23.49;48.44;101310.38;4909512;28;97419;-52
2022/09/04 06:35:58;;;;;;;0.00;0.00;;;23.30;97.90;;;23.47;48.24;101312.34;4920422;28;100851;-52
2022/09/04 06:38:46;;;;;;;0.10;0.07;;;23.30;97.50;;;23.46;48.33;101316.00;4906019;28;97172;-50
2022/09/04 06:41:46;;;;;;;0.20;0.20;;;23.30;97.50;;;23.47;48.30;101320.41;4937999;28;97392;-49
2022/09/04 06:44:33;;;;;;;0.00;0.00;;;23.30;97.50;;;23.45;48.34;101314.31;4904771;28;98048;-51
2022/09/04 06:48:08;;;;;;;0.10;0.10;;;23.30;97.50;;;23.45;48.42;101315.16;4911475;28;97250;-47
2022/09/04 06:50:57;;;;;;;0.00;0.00;;;23.40;97.50;;;23.45;48.68;101325.94;4908845;28;97511;-50
2022/09/04 06:53:44;;;;;;;0.00;0.00;;;23.30;98.20;;;23.45;48.33;101327.78;4910220;28;96752;-54
2022/09/04 06:56:31;;;;;;;0.00;0.00;;;23.40;97.60;;;23.43;52.28;101327.91;4913628;28;98028;-52
2022/09/04 06:59:21;;;;;;;0.00;0.00;;;23.30;99.90;;;23.33;50.91;101332.28;4911259;28;97500;-58
2022/09/04 07:02:21;;;;;;;0.20;0.13;;;23.00;99.90;;;23.31;50.57;101331.53;4904679;28;97470;-51
2022/09/04 07:05:18;;;;;;;0.00;0.00;;;23.00;99.90;;;23.28;48.92;101334.44;4888656;28;97212;-49
2022/09/04 07:08:06;;;;;;;0.00;0.00;;;23.00;98.50;;;23.26;49.06;101330.16;4904539;28;102314;-53
2022/09/04 07:10:41;;;;;;;0.00;0.00;;;23.10;98.30;;;23.27;49.02;101332.75;4906693;28;101446;-53
2022/09/04 07:13:46;;;;;;;0.20;0.10;;;23.10;98.30;;;23.34;50.48;101331.28;4913372;28;102699;-49
2022/09/04 07:16:51;;;;;;;0.00;0.00;;;23.10;98.40;;;23.36;48.86;101340.09;4916633;28;102272;-53
2022/09/04 07:19:45;;;;;;;0.00;0.00;;;23.20;98.50;;;23.30;53.75;101345.97;4895693;28;98988;-50
2022/09/04 07:22:26;;;;;;;0.10;0.10;;;23.10;99.90;;;23.24;54.04;101342.91;4910660;28;97570;-49
2022/09/04 07:25:16;;;;;;;0.10;0.10;;;23.00;99.90;;;23.16;49.94;101340.81;4907948;28;99365;-53
2022/09/04 07:28:04;;;;;;;0.40;0.00;;;22.90;99.90;;;23.17;49.71;101347.91;4901988;28;98853;-52
2022/09/04 07:30:46;;;;;;;0.20;0.20;;;22.90;99.70;;;23.20;53.23;101347.66;4919342;28;101919;-48
2022/09/04 07:33:27;;;;;;;0.00;0.00;;;22.90;99.90;;;23.23;51.50;101346.56;4913438;28;97552;-54
2022/09/04 07:36:15;;;;;;;0.00;0.00;;;23.00;99.90;;;23.21;49.45;101349.38;4916788;28;97178;-49
2022/09/04 07:38:53;;;;;;;0.00;0.00;;;23.00;98.60;;;23.22;49.15;101355.63;4907849;28;97563;-47
2022/09/04 07:41:59;;;;;;;0.00;0.00;;;23.10;98.50;;;23.32;52.75;101357.47;4910955;28;98101;-46
2022/09/04 07:45:26;;;;;;;0.00;0.00;;;23.20;99.80;;;23.31;49.34;101355.78;4908668;28;102628;-52
2022/09/04 07:48:18;;;;;;;0.00;0.00;;;23.10;99.50;;;23.33;49.21;101367.28;4897986;28;102259;-52
2022/09/04 07:51:09;;;;;;;0.00;0.00;;;23.20;98.70;;;23.40;52.33;101371.19;4908524;28;97447;-52
2022/09/04 07:54:08;;;;;;;0.00;0.00;;;23.20;99.90;;;23.33;49.49;101358.34;4911034;28;102293;-51
2022/09/04 07:57:10;;;;;;;0.10;0.10;;;23.10;99.40;;;23.33;51.24;101375.34;4920386;28;100970;-48
2022/09/04 08:00:01;;;;;;;0.10;0.10;;;23.10;99.90;;;23.37;48.96;101376.81;4914869;28;96710;-52
2022/09/04 08:02:35;;;;;;;0.00;0.00;;;23.20;98.50;;;23.35;49.24;101367.16;4909534;28;97043;-49
2022/09/04 08:05:31;;;;;;;0.23;0.23;;;23.20;98.30;;;23.39;48.92;101374.84;4917495;28;97807;-54
2022/09/04 08:08:33;;;;;;;0.00;0.00;;;23.30;98.30;;;23.45;49.02;101368.16;4923723;28;96995;-51
2022/09/04 08:11:14;;;;;;;0.20;0.20;;;23.30;98.20;;;23.47;49.06;101370.72;4904766;28;98043;-53
2022/09/04 08:14:15;;;;;;;0.00;0.00;;;23.40;98.20;;;23.48;49.15;101372.44;4915817;28;96998;-52
2022/09/04 08:16:41;;;;;;;0.00;0.00;;;23.40;98.10;;;23.52;49.00;101380.13;4910977;28;101581;-50
2022/09/04 08:19:41;;;;;;;0.20;0.20;;;23.40;98.40;;;23.57;48.92;101387.84;4921379;28;98995;-50
2022/09/04 08:22:20;;;;;;;0.00;0.00;;;23.50;98.20;;;23.57;48.95;101377.06;4917151;28;98677;-50
2022/09/04 08:25:26;;;;;;;0.17;0.17;;;23.50;98.10;;;23.60;48.81;101382.28;4908451;28;97343;-55
2022/09/04 08:28:37;;;;;;;0.00;0.00;;;23.50;98.00;;;23.60;48.78;101388.50;4908502;28;101331;-53
2022/09/04 08:31:41;;;;;;;0.00;0.00;;;23.50;98.10;;;23.59;48.63;101385.94;4909445;28;101993;-53
2022/09/04 08:35:04;;;;;;;0.00;0.00;;;23.50;98.00;;;23.57;48.79;101387.84;4903379;28;97449;-49
2022/09/04 08:37:56;;;;;;;0.97;0.07;;;23.50;98.00;;;23.56;49.18;101391.50;4902130;28;96783;-51
2022/09/04 08:40:59;;;;;;;0.00;0.00;;;23.50;98.10;;;23.55;49.00;101389.81;4893308;28;97622;-51
2022/09/04 08:43:43;;;;;;;0.00;0.00;;;23.50;98.00;;;;;;4921535;28;101276;-55
2022/09/04 08:46:18;;;;;;;0.00;0.00;;;23.50;99.90;;;23.70;49.67;101396.69;4909259;28;96819;-50
2022/09/04 08:49:29;;;;;;;0.43;0.00;;;23.60;99.40;;;23.72;52.83;101408.22;4904065;28;96871;-49
2022/09/04 08:52:38;;;;;;;0.00;0.00;;;23.60;99.90;;;23.67;53.46;101405.03;4898240;28;102811;-48
2022/09/04 08:55:45;;;;;;;0.13;0.00;;;23.50;99.60;;;23.69;49.54;101403.06;4895901;28;101276;-52
2022/09/04 08:58:17;;;;;;;0.00;0.00;;;23.50;99.90;;;23.65;49.19;101407.00;4903719;28;97551;-46
2022/09/04 09:01:20;;;;;;;0.00;0.00;;;23.50;98.50;;;23.67;49.00;101405.03;4908019;28;97040;-52
2022/09/04 09:04:40;;;;;;;0.00;0.00;;;23.50;98.40;;;23.65;48.95;101413.22;4905084;28;100981;-49
2022/09/04 09:08:03;;;;;;;0.00;0.00;;;23.50;98.20;;;23.68;53.91;101412.13;4907498;28;103527;-48
2022/09/04 09:11:03;;;;;;;0.37;0.00;;;23.50;99.90;;;23.70;54.20;101404.78;4907381;28;98373;-51
2022/09/04 09:13:52;;;;;;;0.33;0.20;;;23.50;99.90;;;23.64;49.64;101411.53;4904176;28;97068;-48
2022/09/04 09:16:41;;;;;;;0.03;0.03;;;23.50;99.30;;;23.68;49.64;101406.75;4908628;28;97601;-49
2022/09/04 09:19:36;;;;;;;0.30;0.20;;;23.60;99.90;;;23.60;49.27;101409.19;4907537;28;102573;-50
2022/09/04 09:22:23;;;;;;;0.43;0.10;;;23.50;98.50;;;23.62;48.97;101401.84;4907470;28;96885;-49
2022/09/04 09:25:11;;;;;;;0.00;0.00;;;23.50;98.40;;;23.56;48.99;101404.97;4907266;28;96824;-51
2022/09/04 09:27:40;;;;;;;0.00;0.00;;;23.50;98.20;;;23.57;49.09;101398.63;4894569;28;101639;-50
2022/09/04 09:30:14;;;;;;;0.00;0.00;;;23.50;98.70;;;23.59;48.95;101402.09;4889486;28;97595;-52
2022/09/04 09:33:16;;;;;;;0.10;0.10;;;23.50;98.20;;;23.74;53.25;101403.59;4892629;28;97295;-48
2022/09/04 09:36:20;;;;;;;0.00;0.00;;;23.60;99.90;;;23.80;54.62;101389.63;4889705;28;97115;-55
2022/09/04 09:39:27;;;;;;;0.20;0.20;;;23.70;99.90;;;23.82;50.99;101393.03;4892438;28;103295;-49
2022/09/04 09:42:36;;;;;;;0.10;0.07;;;23.70;99.60;;;23.83;49.39;101397.44;4890457;28;99728;-51
2022/09/04 09:45:16;;;;;;;0.30;0.10;;;23.70;98.80;;;23.87;53.62;101398.94;4907540;28;98540;-49
2022/09/04 09:48:06;;;;;;;0.38;0.20;;;23.80;99.90;;;23.93;53.83;101395.75;4895617;28;97521;-52
2022/09/04 09:51:31;;;;;;;0.10;0.08;;;23.80;99.90;;;23.90;48.93;101396.00;4889453;28;103518;-50
2022/09/04 09:54:49;;;;;;;0.03;0.00;;;23.80;98.50;;;23.91;48.70;101386.94;4887788;28;102700;-56
2022/09/04 09:57:38;;;;;;;0.10;0.10;;;23.80;98.40;;;23.89;48.57;101388.91;4886165;28;97847;-50
2022/09/04 10:00:13;;;;;;;0.00;0.00;;;23.80;98.20;;;23.85;48.55;101382.00;4890727;28;98432;-49
2022/09/04 10:03:10;;;;;;;0.00;0.00;;;23.80;98.10;;;23.85;48.58;101384.72;4889081;28;97450;-51
2022/09/04 10:05:53;;;;;;;0.20;0.20;;;23.80;98.00;;;23.85;48.48;101387.41;4891161;28;100579;-51
2022/09/04 10:08:53;;;;;;;0.10;0.10;;;23.80;98.00;;;23.83;48.64;101386.66;4890764;28;97345;-53
2022/09/04 10:11:59;;;;;;;0.00;0.00;;;23.80;98.30;;;23.92;53.24;101383.25;4890189;28;97601;-52
2022/09/04 10:15:18;;;;;;;0.00;0.00;;;23.80;99.10;;;23.98;53.53;101382.75;4888826;28;101693;-52
2022/09/04 10:18:32;;;;;;;0.35;0.20;;;23.90;99.90;;;23.95;48.68;101387.53;4889297;28;101393;-55
2022/09/04 10:21:25;;;;;;;0.45;0.20;;;23.90;98.10;;;23.94;49.02;101385.81;4889053;28;99351;-57
2022/09/04 10:24:56;;;;;;;0.00;0.00;;;23.90;98.30;;;23.95;50.33;101382.13;4894614;28;97334;-53
2022/09/04 10:27:46;;;;;;;0.00;0.00;;;23.80;98.00;;;24.10;49.30;101383.59;4890938;28;102237;-55
2022/09/04 10:30:23;;;;;;;0.00;0.00;;;24.10;99.90;;;24.03;48.92;101380.56;4888845;28;97719;-48
2022/09/04 10:33:20;;;;;;;0.22;0.10;;;24.00;98.60;;;24.24;48.84;101377.09;4891054;28;98180;-51
2022/09/04 10:36:19;;;;;;;0.13;0.13;;;24.20;99.10;;;24.37;51.94;101383.22;4886462;28;98576;-50
2022/09/04 10:41:57;;;;;;;0.00;0.00;;;24.40;97.50;;;24.48;48.84;101385.91;4891618;28;99661;-50
2022/09/04 10:44:32;;;;;;;0.30;0.20;;;24.50;99.00;;;24.43;48.33;101381.84;4891335;28;98028;-51
2022/09/04 10:47:36;;;;;;;0.00;0.00;;;24.40;98.00;;;24.49;47.86;101382.22;4893045;28;96813;-58
2022/09/04 10:50:29;;;;;;;0.00;0.00;;;24.50;98.80;;;24.40;49.88;101377.56;4888176;28;102724;-52
2022/09/04 10:53:04;;;;;;;0.00;0.00;;;24.40;97.70;;;24.36;47.65;101375.25;4895264;28;97317;-51
2022/09/04 10:55:47;;;;;;;0.00;0.00;;;24.40;97.10;;;24.55;50.91;101378.13;4889477;28;97638;-51
2022/09/04 10:58:46;;;;;;;0.65;0.32;;;24.50;99.40;;;24.71;51.20;101388.50;4891613;28;97909;-50
2022/09/04 11:01:54;;;;;;;0.00;0.00;;;24.70;99.40;;;24.48;47.92;101380.50;4889814;28;97411;-46
2022/09/04 11:04:45;;;;;;;0.00;0.00;;;24.60;97.50;;;24.48;50.55;101388.59;4892597;28;98041;-53
2022/09/04 11:07:57;;;;;;;0.22;0.22;;;24.40;97.10;;;24.55;50.72;101397.88;4876650;28;98049;-48
2022/09/04 11:11:00;;;;;;;0.40;0.28;;;24.50;99.30;;;24.58;47.00;101380.56;4886647;28;97590;-51
2022/09/04 11:13:59;;;;;;;0.22;0.20;;;24.60;96.70;;;24.50;47.33;101383.91;4891594;28;100541;-51
2022/09/04 11:17:19;;;;;;;0.00;0.00;;;24.50;96.80;;;24.49;47.63;101386.75;4892269;28;103656;-50
2022/09/04 11:20:31;;;;;;;0.00;0.00;;;24.50;97.80;;;24.26;47.83;101380.50;4888404;28;97282;-53
2022/09/04 11:24:03;;;;;;;0.10;0.10;;;24.30;97.10;;;24.27;47.52;101371.44;4892486;28;98641;-52
2022/09/04 11:27:29;;;;;;;0.22;0.22;;;24.30;97.10;;;24.19;47.86;101365.84;4858637;28;104954;-54
2022/09/04 11:30:02;;;;;;;0.00;0.00;;;24.20;97.20;;;24.34;52.33;101383.47;4890383;28;101286;-52
2022/09/04 11:33:36;;;;;;;0.00;0.00;;;24.30;99.90;;;24.36;47.52;101372.56;4888544;28;98061;-55
2022/09/04 11:36:39;;;;;;;0.00;0.00;;;24.40;97.10;;;24.15;48.08;101372.44;4887232;28;97423;-51
2022/09/04 11:39:26;;;;;;;0.00;0.00;;;24.20;97.40;;;24.12;48.07;101367.28;4891975;28;97325;-52
2022/09/04 11:42:29;;;;;;;0.55;0.20;;;24.10;97.40;;;24.12;48.16;101370.00;4893812;28;97518;-53
2022/09/04 11:45:20;;;;;;;0.00;0.00;;;24.10;97.50;;;24.07;48.68;101372.22;4892395;28;97047;-50
2022/09/04 11:48:23;;;;;;;0.00;0.00;;;24.10;97.80;;;24.13;48.11;101374.41;4888818;28;99238;-50
2022/09/04 11:51:15;;;;;;;0.00;0.00;;;24.10;97.60;;;24.10;48.20;101369.25;4886394;28;103019;-52
2022/09/04 11:54:03;;;;;;;3.30;0.10;;;24.10;97.60;;;24.04;48.70;101368.78;4889259;28;101403;-50
2022/09/04 11:56:59;;;;;;;0.00;0.00;;;24.00;97.80;;;24.10;48.09;101369.25;4888153;28;97745;-49
2022/09/04 11:59:43;;;;;;;0.20;0.20;;;24.00;97.50;;;24.13;48.46;101375.25;4888853;28;97240;-52
2022/09/04 12:02:43;;;;;;;0.10;0.00;;;24.10;97.70;;;24.11;48.50;101381.75;4891704;28;97263;-51